LPPT/LIS METAR and TAF weather

Enter ICAO airport designator
Station Type Date Time Source
LPPT METAR 2019/06/27 08:00 UTC NOAA

LPPT 270800Z 10004KT 040V170 9999 BKN012 18/16 Q1018


Station Type Date Time Source
LPPT Decoded METAR 2019/06/27 08:00 UTC NOAA

Lisboa / Portela, Portugal (LPPT) 38-46N 009-08W 123M
Jun 27, 2019 - 04:00 AM EDT / 2019.06.27 0800 UTC
Wind: from the E (100 degrees) at 5 MPH (4 KT) (direction variable):0
Visibility: greater than 7 mile(s):0
Sky conditions: mostly cloudy
Temperature: 64 F (18 C)
Dew Point: 60 F (16 C)
Relative Humidity: 88%
Pressure (altimeter): 30.06 in. Hg (1018 hPa)
ob: LPPT 270800Z 10004KT 040V170 9999 BKN012 18/16 Q1018
cycle: 8

Station Type Date Time Source
LPPT TAF 2019/06/27 06:18 UTC NOAA

TAF LPPT 270500Z 2706/2812 VRB03KT 9999 FEW010 PROB30
TEMPO 2706/2708 5000 BR BKN005
BECMG 2708/2710 22005KT FEW020
BECMG 2714/2716 26007KT
BECMG 2718/2720 31007KT
BECMG 2800/2802 SCT012
TEMPO 2802/2806 BKN008
BECMG 2808/2811 35010KT CAVOK

Example: see airport list